Time;durP1;ratioP1;P1;durP2;ratioP2;P2;SDS_P1;SDS_P2;PMS_P1;PMS_P2;Temp;Humidity;BMP_temperature;BMP_pressure;BME280_temperature;BME280_humidity;BME280_pressure;Samples;Min_cycle;Max_cycle;Signal;HPM_P1;HPM_P2
2021/03/11 00:00:40;;;;;;;27.30;11.38;;;6.50;99.90;;;;;;4985966;28;20114;-65
2021/03/11 00:03:06;;;;;;;25.02;11.10;;;6.50;99.90;;;;;;4983944;28;20180;-65
2021/03/11 00:05:34;;;;;;;27.30;11.73;;;6.50;99.90;;;;;;4986087;28;20088;-65
2021/03/11 00:07:59;;;;;;;23.42;10.82;;;6.60;99.90;;;;;;4984670;28;20034;-65
2021/03/11 00:10:25;;;;;;;29.83;11.98;;;6.60;99.90;;;;;;4986490;28;20026;-66
2021/03/11 00:12:51;;;;;;;27.45;11.13;;;6.60;99.90;;;;;;4991109;28;20090;-66
2021/03/11 00:15:18;;;;;;;29.67;11.13;;;6.60;99.90;;;;;;4991706;28;20039;-65
2021/03/11 00:17:45;;;;;;;22.95;11.07;;;6.70;99.90;;;;;;4990809;28;20039;-66
2021/03/11 00:20:13;;;;;;;26.42;10.57;;;6.70;99.90;;;;;;4988834;28;20103;-66
2021/03/11 00:22:40;;;;;;;21.10;9.93;;;6.70;99.90;;;;;;4988199;28;20058;-65
2021/03/11 00:25:08;;;;;;;22.95;10.23;;;6.80;99.90;;;;;;4985792;28;20510;-66
2021/03/11 00:27:33;;;;;;;20.80;9.82;;;6.80;99.90;;;;;;4981592;28;20042;-65
2021/03/11 00:29:59;;;;;;;19.55;9.93;;;6.80;99.90;;;;;;4985399;28;20375;-65
2021/03/11 00:32:25;;;;;;;27.80;10.02;;;6.80;99.90;;;;;;4986267;28;20065;-65
2021/03/11 00:34:50;;;;;;;22.30;10.15;;;6.90;99.90;;;;;;4985420;28;20111;-66
2021/03/11 00:37:16;;;;;;;19.83;9.52;;;6.90;99.90;;;;;;4986161;28;20172;-65
2021/03/11 00:39:42;;;;;;;22.05;10.50;;;7.00;99.90;;;;;;4986029;28;20038;-66
2021/03/11 00:42:07;;;;;;;20.90;9.50;;;7.00;99.90;;;;;;4985617;28;20540;-65
2021/03/11 00:44:33;;;;;;;19.60;9.35;;;7.10;99.90;;;;;;4985934;28;20042;-65
2021/03/11 00:46:59;;;;;;;21.15;9.00;;;7.10;99.90;;;;;;4985569;28;20030;-65
2021/03/11 00:49:24;;;;;;;18.83;8.40;;;7.10;99.90;;;;;;4986090;28;20088;-65
2021/03/11 00:51:50;;;;;;;22.92;9.88;;;7.10;99.90;;;;;;4985567;28;20086;-65
2021/03/11 00:54:16;;;;;;;20.33;9.52;;;7.10;99.90;;;;;;4985932;28;20475;-66
2021/03/11 00:56:41;;;;;;;21.73;10.98;;;7.10;99.90;;;;;;4982841;28;20493;-65
2021/03/11 00:59:07;;;;;;;21.90;9.75;;;7.10;99.90;;;;;;4990378;28;20567;-65
2021/03/11 01:01:33;;;;;;;22.95;10.57;;;7.10;99.90;;;;;;4990760;28;20121;-65
2021/03/11 01:03:59;;;;;;;23.80;10.68;;;7.10;99.90;;;;;;4979807;28;20133;-65
2021/03/11 01:06:25;;;;;;;21.08;10.13;;;7.00;99.90;;;;;;4977907;28;20150;-65
2021/03/11 01:08:50;;;;;;;19.40;8.80;;;7.00;99.90;;;;;;4977710;28;20054;-65
2021/03/11 01:11:16;;;;;;;21.25;10.73;;;7.00;99.90;;;;;;4973839;28;21433;-65
2021/03/11 01:13:41;;;;;;;21.67;9.98;;;7.10;99.90;;;;;;4980865;28;20030;-65
2021/03/11 01:16:07;;;;;;;22.63;10.93;;;7.10;99.90;;;;;;4976441;28;20039;-65
2021/03/11 01:18:33;;;;;;;21.75;10.52;;;7.10;99.90;;;;;;4975302;28;20054;-65
2021/03/11 01:20:58;;;;;;;24.65;9.80;;;7.10;99.90;;;;;;4974079;28;20051;-65
2021/03/11 01:23:24;;;;;;;20.98;9.52;;;7.10;99.90;;;;;;4973768;28;20443;-65
2021/03/11 01:25:49;;;;;;;25.05;10.60;;;7.10;99.90;;;;;;4978992;28;20088;-65
2021/03/11 01:28:15;;;;;;;21.88;9.93;;;7.10;99.90;;;;;;4981542;28;20031;-65
2021/03/11 01:30:40;;;;;;;22.25;10.23;;;7.20;99.90;;;;;;4977677;28;20105;-65
2021/03/11 01:33:06;;;;;;;24.08;10.95;;;7.10;99.90;;;;;;4975181;28;20106;-65
2021/03/11 01:35:32;;;;;;;25.05;11.32;;;7.20;99.90;;;;;;4978981;28;20495;-66
2021/03/11 01:37:57;;;;;;;24.73;11.27;;;7.20;99.90;;;;;;4978139;28;20637;-65
2021/03/11 01:40:23;;;;;;;24.45;10.23;;;7.30;99.90;;;;;;4979408;28;20035;-65
2021/03/11 01:42:48;;;;;;;21.10;10.45;;;7.30;99.90;;;;;;4973820;28;20559;-65
2021/03/11 01:45:16;;;;;;;24.48;10.85;;;7.30;99.90;;;;;;4973206;28;20106;-65
2021/03/11 01:47:41;;;;;;;20.70;10.27;;;7.30;99.90;;;;;;4974324;28;20071;-65
2021/03/11 01:50:07;;;;;;;22.90;10.50;;;7.40;99.90;;;;;;4973998;28;20059;-66
2021/03/11 01:52:34;;;;;;;20.38;10.48;;;7.40;99.90;;;;;;4974420;28;20665;-65
2021/03/11 01:55:00;;;;;;;23.95;9.95;;;7.40;99.90;;;;;;4978140;28;20102;-65
2021/03/11 01:57:26;;;;;;;21.10;9.32;;;7.40;99.90;;;;;;4976462;28;20458;-65
2021/03/11 01:59:53;;;;;;;25.27;10.45;;;7.40;99.90;;;;;;4977034;28;20038;-66
2021/03/11 02:02:19;;;;;;;19.35;9.50;;;7.50;99.90;;;;;;4973912;28;20148;-65
2021/03/11 02:04:44;;;;;;;21.58;10.32;;;7.50;99.90;;;;;;4978611;28;20129;-65
2021/03/11 02:07:10;;;;;;;19.40;9.15;;;7.50;99.90;;;;;;4973806;28;20050;-65
2021/03/11 02:09:36;;;;;;;18.63;8.95;;;7.50;99.90;;;;;;4973826;28;20039;-65
2021/03/11 02:12:29;;;;;;;18.00;8.45;;;7.50;99.90;;;;;;4977489;28;20030;-65
2021/03/11 02:15:13;;;;;;;19.83;9.00;;;7.50;99.90;;;;;;4976798;28;20030;-65
2021/03/11 02:17:44;;;;;;;25.48;8.80;;;7.50;99.90;;;;;;5006149;28;20054;-65
2021/03/11 02:20:41;;;;;;;22.70;10.88;;;7.60;99.90;;;;;;4977912;28;20031;-66
2021/03/11 02:23:44;;;;;;;18.58;9.27;;;7.60;99.90;;;;;;4978913;28;20081;-65
2021/03/11 02:26:34;;;;;;;17.45;9.07;;;7.60;99.90;;;;;;4950561;28;20038;-66
2021/03/11 02:29:07;;;;;;;18.95;9.38;;;7.60;99.90;;;;;;4973960;28;20046;-66
2021/03/11 02:31:36;;;;;;;22.05;9.73;;;7.70;99.90;;;;;;4978323;28;20041;-65
2021/03/11 02:34:16;;;;;;;19.88;10.07;;;7.70;99.90;;;;;;4972563;28;20392;-66
2021/03/11 02:36:43;;;;;;;18.83;9.90;;;7.80;99.90;;;;;;4976148;28;20031;-66
2021/03/11 02:39:10;;;;;;;19.40;9.20;;;7.80;99.90;;;;;;4977964;28;20737;-65
2021/03/11 02:41:37;;;;;;;22.88;10.15;;;7.80;99.90;;;;;;4974373;28;20042;-66
2021/03/11 02:44:05;;;;;;;21.27;9.13;;;7.80;99.90;;;;;;4973999;28;20049;-65
2021/03/11 02:46:32;;;;;;;21.08;10.25;;;7.80;99.90;;;;;;4977063;28;20633;-66
2021/03/11 02:48:58;;;;;;;22.08;10.13;;;7.80;99.90;;;;;;4971974;28;20150;-66
2021/03/11 02:51:24;;;;;;;22.10;10.80;;;7.80;99.90;;;;;;4975960;28;20778;-67
2021/03/11 02:53:50;;;;;;;21.08;9.57;;;7.80;99.90;;;;;;4974881;28;20043;-66
2021/03/11 02:56:17;;;;;;;23.40;11.05;;;7.80;99.90;;;;;;4974768;28;20042;-66
2021/03/11 02:58:44;;;;;;;22.60;10.45;;;7.90;99.90;;;;;;4975749;28;20394;-66
2021/03/11 03:01:13;;;;;;;22.38;10.02;;;7.90;99.90;;;;;;4974047;28;20502;-66
2021/03/11 03:03:39;;;;;;;21.20;10.73;;;8.00;99.90;;;;;;4975456;28;20057;-64
2021/03/11 03:06:05;;;;;;;21.02;10.48;;;8.00;99.90;;;;;;4976926;28;20054;-65
2021/03/11 03:08:32;;;;;;;22.25;10.02;;;8.00;99.90;;;;;;4976637;28;20038;-65
2021/03/11 03:10:58;;;;;;;19.48;9.73;;;8.10;99.90;;;;;;4973637;28;20035;-66
2021/03/11 03:13:25;;;;;;;19.10;9.68;;;8.10;99.90;;;;;;4977821;28;20442;-66
2021/03/11 03:15:54;;;;;;;21.10;9.52;;;8.10;99.90;;;;;;4975815;28;20115;-66
2021/03/11 03:18:21;;;;;;;17.00;8.75;;;8.10;99.90;;;;;;4973861;28;20031;-65
2021/03/11 03:20:47;;;;;;;20.25;8.98;;;8.10;99.90;;;;;;4976642;28;20258;-66
2021/03/11 03:23:13;;;;;;;21.33;9.85;;;8.10;99.90;;;;;;4974615;28;20091;-66
2021/03/11 03:25:39;;;;;;;19.73;8.73;;;8.10;99.90;;;;;;4975811;28;20498;-65
2021/03/11 03:28:05;;;;;;;18.88;9.30;;;8.20;99.90;;;;;;4978686;28;20058;-65
2021/03/11 03:30:31;;;;;;;17.85;9.45;;;8.20;99.90;;;;;;4979915;28;20084;-66
2021/03/11 03:32:56;;;;;;;21.70;10.30;;;8.20;99.90;;;;;;4980947;28;20046;-65
2021/03/11 03:35:22;;;;;;;18.45;9.65;;;8.20;99.90;;;;;;4979828;28;20046;-65
2021/03/11 03:37:49;;;;;;;18.67;8.65;;;8.20;99.90;;;;;;4976132;28;20027;-66
2021/03/11 03:40:15;;;;;;;21.45;9.40;;;8.30;99.90;;;;;;4975809;28;20027;-67
2021/03/11 03:43:08;;;;;;;23.33;10.20;;;8.30;99.90;;;;;;4980939;28;20677;-66
2021/03/11 03:45:38;;;;;;;20.60;10.45;;;8.40;99.90;;;;;;4974020;28;20046;-66
2021/03/11 03:48:08;;;;;;;21.05;10.48;;;8.40;99.90;;;;;;4980956;28;20061;-66
2021/03/11 03:50:34;;;;;;;21.70;9.80;;;8.40;99.90;;;;;;4977266;28;20041;-66
2021/03/11 03:53:07;;;;;;;24.13;9.32;;;8.50;99.90;;;;;;4978867;28;20116;-66
2021/03/11 03:55:35;;;;;;;21.02;10.60;;;8.50;99.90;;;;;;4978676;28;20042;-67
2021/03/11 03:58:01;;;;;;;19.35;9.02;;;8.50;99.90;;;;;;4977361;28;20059;-66
2021/03/11 04:00:27;;;;;;;20.00;9.55;;;8.60;99.90;;;;;;4979443;28;20156;-66
2021/03/11 04:02:55;;;;;;;20.13;9.45;;;8.60;99.90;;;;;;4976799;28;20054;-66
2021/03/11 04:05:22;;;;;;;18.58;9.07;;;8.70;99.90;;;;;;4976024;28;20035;-65
2021/03/11 04:07:49;;;;;;;17.90;8.98;;;8.70;99.90;;;;;;4979567;28;20087;-66
2021/03/11 04:10:15;;;;;;;17.10;8.35;;;8.80;99.90;;;;;;4976630;28;20038;-67
2021/03/11 04:12:41;;;;;;;15.82;8.40;;;8.90;99.90;;;;;;4977226;28;20515;-66
2021/03/11 04:15:08;;;;;;;14.40;7.60;;;8.90;99.90;;;;;;4976506;28;20406;-65
2021/03/11 04:17:34;;;;;;;14.02;7.13;;;9.00;99.90;;;;;;4977503;28;20130;-66
2021/03/11 04:20:02;;;;;;;11.68;6.05;;;9.00;99.90;;;;;;4975507;28;20126;-66
2021/03/11 04:22:28;;;;;;;13.65;7.10;;;9.00;99.90;;;;;;4977351;28;20069;-65
2021/03/11 04:24:55;;;;;;;14.65;6.47;;;9.10;99.90;;;;;;4976160;28;20058;-66
2021/03/11 04:27:21;;;;;;;11.52;6.05;;;9.10;99.90;;;;;;4976032;28;20035;-66
2021/03/11 04:29:48;;;;;;;12.15;6.22;;;9.10;99.90;;;;;;4980156;28;20364;-66
2021/03/11 04:32:14;;;;;;;15.40;7.00;;;9.20;99.90;;;;;;4977690;28;20130;-66
2021/03/11 04:34:40;;;;;;;19.23;8.35;;;9.20;99.90;;;;;;4976976;28;20038;-66
2021/03/11 04:37:06;;;;;;;14.02;6.25;;;9.20;99.90;;;;;;4977975;28;20122;-66
2021/03/11 04:39:32;;;;;;;10.93;6.25;;;9.20;99.90;;;;;;4978164;28;20035;-66
2021/03/11 04:41:58;;;;;;;10.77;5.70;;;9.20;99.90;;;;;;4976136;28;20031;-66
2021/03/11 04:44:26;;;;;;;14.68;5.30;;;9.30;99.90;;;;;;4978583;28;20062;-66
2021/03/11 04:46:54;;;;;;;13.93;6.00;;;9.30;99.90;;;;;;4979977;28;20063;-69
2021/03/11 04:49:21;;;;;;;11.63;5.72;;;9.30;99.90;;;;;;4983833;28;20213;-67
2021/03/11 04:51:47;;;;;;;14.65;5.93;;;9.40;99.90;;;;;;4980525;28;20509;-67
2021/03/11 04:54:13;;;;;;;12.57;5.85;;;9.40;99.90;;;;;;4979225;28;20030;-66
2021/03/11 04:56:41;;;;;;;14.45;5.68;;;9.30;99.90;;;;;;4976219;28;20046;-65
2021/03/11 04:59:09;;;;;;;18.20;5.57;;;9.30;99.90;;;;;;4976460;28;20035;-66
2021/03/11 05:01:40;;;;;;;15.73;6.25;;;9.30;99.90;;;;;;4976634;28;20045;-66
2021/03/11 05:04:07;;;;;;;17.58;5.82;;;9.20;99.90;;;;;;4979795;28;20398;-65
2021/03/11 05:06:33;;;;;;;19.33;6.82;;;9.20;99.90;;;;;;4976603;28;20047;-66
2021/03/11 05:08:58;;;;;;;16.40;5.82;;;9.20;99.90;;;;;;4976454;28;20472;-66
2021/03/11 05:11:24;;;;;;;15.05;6.43;;;9.20;99.90;;;;;;4974247;28;20031;-64
2021/03/11 05:13:49;;;;;;;21.15;6.68;;;9.10;99.90;;;;;;4978755;28;20706;-66
2021/03/11 05:16:15;;;;;;;12.60;5.80;;;9.10;99.90;;;;;;4975376;28;20400;-65
2021/03/11 05:18:41;;;;;;;14.57;7.13;;;9.10;99.90;;;;;;4977824;28;20069;-66
2021/03/11 05:21:07;;;;;;;13.35;6.53;;;9.10;99.90;;;;;;4976330;28;20656;-66
2021/03/11 05:23:33;;;;;;;14.35;6.32;;;9.10;99.90;;;;;;4972540;28;20035;-65
2021/03/11 05:25:59;;;;;;;17.45;7.03;;;9.10;99.90;;;;;;4975758;28;20050;-66
2021/03/11 05:28:25;;;;;;;13.02;6.20;;;9.10;99.90;;;;;;4977227;28;20049;-66
2021/03/11 05:30:50;;;;;;;14.98;6.80;;;9.10;99.90;;;;;;4977326;28;22009;-66
2021/03/11 05:33:16;;;;;;;22.52;6.93;;;9.20;99.90;;;;;;4978163;28;20047;-64
2021/03/11 05:35:42;;;;;;;16.40;6.70;;;9.20;99.90;;;;;;4977577;28;20027;-67
2021/03/11 05:38:08;;;;;;;11.10;5.60;;;9.10;99.90;;;;;;4975884;28;20046;-65
2021/03/11 05:40:34;;;;;;;12.57;6.18;;;9.10;99.90;;;;;;4974664;28;20034;-67
2021/03/11 05:43:03;;;;;;;14.77;5.93;;;9.20;99.90;;;;;;4974693;28;20569;-67
2021/03/11 05:45:29;;;;;;;13.13;6.00;;;9.20;99.90;;;;;;4977201;28;20046;-66
2021/03/11 05:47:56;;;;;;;17.95;6.40;;;9.20;99.90;;;;;;4977665;28;20511;-67
2021/03/11 05:50:22;;;;;;;16.23;6.10;;;9.20;99.90;;;;;;4973747;28;20035;-67
2021/03/11 05:52:48;;;;;;;14.15;5.88;;;9.20;99.90;;;;;;4974528;28;20477;-67
2021/03/11 05:55:14;;;;;;;18.33;6.25;;;9.20;99.90;;;;;;4978278;28;20433;-66
2021/03/11 05:57:44;;;;;;;15.27;6.85;;;9.20;99.90;;;;;;4974986;28;20042;-66
2021/03/11 06:00:15;;;;;;;14.52;5.93;;;9.20;99.90;;;;;;4976361;28;20088;-66
2021/03/11 06:02:45;;;;;;;17.52;5.85;;;9.20;99.90;;;;;;4977980;28;20034;-66
2021/03/11 06:05:21;;;;;;;14.30;4.95;;;9.20;99.90;;;;;;4976925;28;20046;-66
2021/03/11 06:07:48;;;;;;;17.10;6.03;;;9.20;99.90;;;;;;4974457;28;20530;-66
2021/03/11 06:10:17;;;;;;;17.33;5.68;;;9.30;99.90;;;;;;4978536;28;20034;-66
2021/03/11 06:12:47;;;;;;;12.73;5.20;;;9.30;99.90;;;;;;4974521;28;20495;-67
2021/03/11 06:15:30;;;;;;;10.60;4.10;;;9.40;99.90;;;;;;4977708;28;20035;-65
2021/03/11 06:17:57;;;;;;;18.33;4.20;;;9.40;99.90;;;;;;4978157;28;20106;-66
2021/03/11 06:20:23;;;;;;;14.23;4.53;;;9.40;99.90;;;;;;4979485;28;20031;-65
2021/03/11 06:22:48;;;;;;;9.95;3.00;;;9.50;99.90;;;;;;4972932;28;20033;-65
2021/03/11 06:25:16;;;;;;;8.98;3.63;;;9.50;99.90;;;;;;4977943;28;20087;-66
2021/03/11 06:27:42;;;;;;;12.30;4.10;;;9.50;99.90;;;;;;4973139;28;20041;-66
2021/03/11 06:30:27;;;;;;;11.65;3.63;;;9.60;99.90;;;;;;4978371;28;20038;-66
2021/03/11 06:32:54;;;;;;;11.10;3.20;;;9.60;99.90;;;;;;4976947;28;20543;-65
2021/03/11 06:35:20;;;;;;;11.57;3.15;;;9.80;99.90;;;;;;4974566;28;20038;-66
2021/03/11 06:37:48;;;;;;;10.20;2.75;;;9.80;99.90;;;;;;4974162;28;20031;-65
2021/03/11 06:40:15;;;;;;;8.60;2.40;;;9.90;99.90;;;;;;4974416;28;20041;-64
2021/03/11 06:42:40;;;;;;;10.00;2.72;;;10.00;99.90;;;;;;4978701;28;20522;-66
2021/03/11 06:45:27;;;;;;;9.52;2.38;;;10.00;99.90;;;;;;4976598;28;20042;-67
2021/03/11 06:48:25;;;;;;;9.65;2.22;;;10.10;99.90;;;;;;4980134;28;20027;-67
2021/03/11 06:50:52;;;;;;;8.65;2.45;;;10.10;99.90;;;;;;4974539;28;20031;-67
2021/03/11 06:53:18;;;;;;;8.18;2.15;;;10.20;99.90;;;;;;4973051;28;20108;-67
2021/03/11 06:55:43;;;;;;;7.28;2.50;;;10.30;99.90;;;;;;4972877;28;20031;-67
2021/03/11 06:58:24;;;;;;;6.97;1.83;;;10.20;99.90;;;;;;4973007;28;20037;-67
2021/03/11 07:01:07;;;;;;;9.13;2.08;;;10.20;99.90;;;;;;4976058;28;20027;-67
2021/03/11 07:03:40;;;;;;;8.05;2.58;;;10.30;99.90;;;;;;4980547;28;20113;-66
2021/03/11 07:06:07;;;;;;;9.30;3.08;;;10.30;99.90;;;;;;4981849;28;20027;-67
2021/03/11 07:08:32;;;;;;;5.78;2.25;;;10.30;99.90;;;;;;4975149;28;20064;-67
2021/03/11 07:11:06;;;;;;;8.07;2.10;;;10.40;99.90;;;;;;4975320;28;20029;-66
2021/03/11 07:13:41;;;;;;;6.60;2.40;;;10.40;99.90;;;;;;4981967;28;20125;-66
2021/03/11 07:16:19;;;;;;;11.77;1.95;;;10.50;99.90;;;;;;4979485;28;20022;-66
2021/03/11 07:18:45;;;;;;;10.20;3.17;;;10.50;99.90;;;;;;4979492;28;20035;-66
2021/03/11 07:21:11;;;;;;;9.00;1.80;;;10.60;99.90;;;;;;4982535;28;20027;-66
2021/03/11 07:23:47;;;;;;;19.65;5.15;;;10.60;99.90;;;;;;4986270;28;20112;-66
2021/03/11 07:26:13;;;;;;;7.82;1.58;;;10.60;99.90;;;;;;4984890;28;20693;-67
2021/03/11 07:28:39;;;;;;;11.50;2.47;;;10.50;99.90;;;;;;4984371;28;20030;-67
2021/03/11 07:31:05;;;;;;;18.30;3.25;;;10.60;99.90;;;;;;4985472;28;20083;-67
2021/03/11 07:33:33;;;;;;;16.40;2.78;;;10.60;99.90;;;;;;4983623;28;20129;-67
2021/03/11 07:36:01;;;;;;;23.65;3.03;;;10.70;99.90;;;;;;4990702;28;20026;-66
2021/03/11 07:38:31;;;;;;;23.25;4.43;;;10.70;99.90;;;;;;4980415;28;20035;-66
2021/03/11 07:41:02;;;;;;;22.50;3.40;;;10.70;99.90;;;;;;4985478;28;20117;-66
2021/03/11 07:43:30;;;;;;;16.90;3.10;;;10.60;99.90;;;;;;4981613;28;20126;-66
2021/03/11 07:45:58;;;;;;;29.85;4.78;;;10.70;99.90;;;;;;4984478;28;20502;-67
2021/03/11 07:48:24;;;;;;;23.13;3.17;;;10.70;99.90;;;;;;4984743;28;20037;-66
2021/03/11 07:50:51;;;;;;;29.13;3.70;;;10.70;99.90;;;;;;4985113;28;20630;-66
2021/03/11 07:53:18;;;;;;;17.70;3.60;;;10.70;99.90;;;;;;4984315;28;20034;-66
2021/03/11 07:55:44;;;;;;;24.73;3.72;;;10.80;99.90;;;;;;4983992;28;20387;-66
2021/03/11 07:58:13;;;;;;;18.65;3.53;;;10.80;99.90;;;;;;4985861;28;20026;-66
2021/03/11 08:00:39;;;;;;;23.85;2.95;;;10.80;99.90;;;;;;4985795;28;20035;-66
2021/03/11 08:03:21;;;;;;;17.83;3.13;;;10.80;99.90;;;;;;4984312;28;20036;-67
2021/03/11 08:05:47;;;;;;;25.65;4.22;;;10.90;99.90;;;;;;4979036;28;20031;-66
2021/03/11 08:08:28;;;;;;;18.25;3.30;;;11.00;99.90;;;;;;4987087;28;20042;-66
2021/03/11 08:10:55;;;;;;;;;;;11.00;99.90;;;;;;4984956;28;20082;-66
2021/03/11 08:13:23;;;;;;;14.48;2.33;;;11.00;99.90;;;;;;4986518;28;19917;-67
2021/03/11 08:15:49;;;;;;;21.85;3.45;;;11.20;99.90;;;;;;4985100;28;20046;-67
2021/03/11 08:18:33;;;;;;;28.25;3.55;;;11.20;99.90;;;;;;4989526;28;20035;-66
2021/03/11 08:21:04;;;;;;;16.98;2.80;;;11.30;99.90;;;;;;4974859;28;20038;-66
2021/03/11 08:23:35;;;;;;;14.88;2.70;;;11.30;99.90;;;;;;4984795;28;20050;-67
2021/03/11 08:26:03;;;;;;;19.77;3.78;;;11.30;99.90;;;;;;4986489;28;20050;-66
2021/03/11 08:28:29;;;;;;;16.38;2.97;;;11.40;99.90;;;;;;4987011;28;20038;-66
2021/03/11 08:30:57;;;;;;;19.27;2.67;;;11.40;99.90;;;;;;4987551;28;20030;-67
2021/03/11 08:33:25;;;;;;;25.33;3.97;;;11.40;99.90;;;;;;4987510;28;20031;-67
2021/03/11 08:35:55;;;;;;;22.65;4.70;;;11.50;99.90;;;;;;4985766;28;20495;-71
2021/03/11 08:38:21;;;;;;;26.88;3.92;;;11.50;99.90;;;;;;4983705;28;20028;-66
2021/03/11 08:40:56;;;;;;;17.83;2.72;;;11.60;99.90;;;;;;4985533;28;20041;-65
2021/03/11 08:43:41;;;;;;;30.75;4.55;;;11.70;99.90;;;;;;4984150;28;20054;-65
2021/03/11 08:46:11;;;;;;;24.98;4.00;;;11.90;99.90;;;;;;4982881;28;20399;-65
2021/03/11 08:48:58;;;;;;;;;;;12.00;99.90;;;;;;4983431;28;20511;-65
2021/03/11 08:51:23;;;;;;;19.52;3.13;;;12.10;99.90;;;;;;4987191;28;19921;-65
2021/03/11 08:53:53;;;;;;;30.42;3.97;;;12.20;99.90;;;;;;4982997;28;20030;-66
2021/03/11 08:56:19;;;;;;;21.00;3.78;;;12.40;99.90;;;;;;4983171;28;20030;-65
2021/03/11 08:59:05;;;;;;;19.17;4.40;;;12.40;99.90;;;;;;4984006;28;20171;-65
2021/03/11 09:01:45;;;;;;;22.60;4.18;;;12.40;99.90;;;;;;4985416;28;20155;-67
2021/03/11 09:04:19;;;;;;;25.50;3.13;;;12.40;99.90;;;;;;4977985;28;20046;-66
2021/03/11 09:06:48;;;;;;;30.40;4.82;;;12.50;99.90;;;;;;4977518;28;20048;-66
2021/03/11 09:09:14;;;;;;;22.00;3.80;;;12.50;99.90;;;;;;4975875;28;20060;-66
2021/03/11 09:11:52;;;;;;;13.73;2.92;;;12.50;99.90;;;;;;4975890;28;20466;-66
2021/03/11 09:14:19;;;;;;;21.83;3.78;;;12.50;99.90;;;;;;4976673;28;20035;-66
2021/03/11 09:16:45;;;;;;;16.02;2.90;;;12.50;99.90;;;;;;4975485;28;20041;-65
2021/03/11 09:19:10;;;;;;;21.77;3.05;;;12.40;99.90;;;;;;4974956;28;20042;-66
2021/03/11 09:21:36;;;;;;;23.20;4.20;;;12.30;99.90;;;;;;4975575;28;20483;-66
2021/03/11 09:24:03;;;;;;;27.30;4.95;;;12.10;99.90;;;;;;5006706;28;20055;-66
2021/03/11 09:26:31;;;;;;;27.30;3.40;;;12.20;99.90;;;;;;4981962;28;20487;-66
2021/03/11 09:28:57;;;;;;;28.50;3.65;;;12.20;99.90;;;;;;4978680;28;20166;-66
2021/03/11 09:31:26;;;;;;;30.02;3.92;;;12.10;99.90;;;;;;4974331;28;20034;-66
2021/03/11 09:33:53;;;;;;;29.25;4.00;;;12.00;99.90;;;;;;4975177;28;20388;-66
2021/03/11 09:36:19;;;;;;;23.70;5.10;;;12.10;99.90;;;;;;4976433;28;20085;-66
2021/03/11 09:38:45;;;;;;;28.00;4.43;;;12.30;99.90;;;;;;4978698;28;20491;-66
2021/03/11 09:41:11;;;;;;;21.10;3.75;;;12.50;99.90;;;;;;4976319;28;20544;-65
2021/03/11 09:43:39;;;;;;;25.27;2.72;;;12.60;99.90;;;;;;4974858;28;20027;-66
2021/03/11 09:46:18;;;;;;;21.27;2.80;;;12.70;99.90;;;;;;4972909;28;20088;-65
2021/03/11 09:48:46;;;;;;;23.58;2.78;;;12.90;99.90;;;;;;4979064;28;20073;-66
2021/03/11 09:51:17;;;;;;;20.30;3.88;;;12.80;99.90;;;;;;4978451;28;20037;-65
2021/03/11 09:53:57;;;;;;;24.55;2.83;;;12.70;99.90;;;;;;4977056;28;20538;-66
2021/03/11 09:56:28;;;;;;;19.08;3.50;;;12.60;99.90;;;;;;4976930;28;20069;-66
2021/03/11 09:58:55;;;;;;;20.48;3.10;;;12.40;99.90;;;;;;4975729;28;20030;-66
2021/03/11 10:01:35;;;;;;;21.45;3.88;;;12.40;99.90;;;;;;4973761;28;20045;-65
2021/03/11 10:04:10;;;;;;;17.80;3.30;;;12.40;99.90;;;;;;4975082;28;20039;-65
2021/03/11 10:06:36;;;;;;;21.83;3.92;;;12.30;99.90;;;;;;4978817;28;20128;-66
2021/03/11 10:09:03;;;;;;;23.30;4.82;;;12.20;99.90;;;;;;4974060;28;20172;-65
2021/03/11 10:11:40;;;;;;;24.98;4.55;;;12.20;99.90;;;;;;4977287;28;20039;-66
2021/03/11 10:14:23;;;;;;;21.65;3.83;;;12.20;99.90;;;;;;4976856;28;20388;-66
2021/03/11 10:16:54;;;;;;;28.45;3.95;;;12.30;99.90;;;;;;4981182;28;20438;-65
2021/03/11 10:19:30;;;;;;;22.98;3.45;;;12.40;99.90;;;;;;4983242;28;20092;-66
2021/03/11 10:22:06;;;;;;;23.55;4.68;;;12.40;99.90;;;;;;4984561;28;20035;-66
2021/03/11 10:24:38;;;;;;;25.73;4.13;;;12.50;99.90;;;;;;4984522;28;20403;-66
2021/03/11 10:27:15;;;;;;;24.95;3.70;;;12.40;99.90;;;;;;4982753;28;20129;-65
2021/03/11 10:29:41;;;;;;;25.33;4.65;;;12.30;99.90;;;;;;4984729;28;20070;-65
2021/03/11 10:32:07;;;;;;;22.60;4.07;;;12.30;99.90;;;;;;4984184;28;20148;-66
2021/03/11 10:34:47;;;;;;;25.58;3.85;;;12.20;99.90;;;;;;4982766;28;20042;-65
2021/03/11 10:37:13;;;;;;;28.65;4.10;;;12.30;99.90;;;;;;4983979;28;20038;-65
2021/03/11 10:39:56;;;;;;;22.52;4.35;;;12.30;99.90;;;;;;4984639;28;20069;-65
2021/03/11 10:42:23;;;;;;;17.80;3.80;;;12.30;99.90;;;;;;4983015;28;20049;-66
2021/03/11 10:45:02;;;;;;;29.25;4.78;;;12.30;99.90;;;;;;4984127;28;20141;-66
2021/03/11 10:47:28;;;;;;;22.13;3.75;;;12.20;99.90;;;;;;4981108;28;20584;-66
2021/03/11 10:49:54;;;;;;;37.63;7.18;;;12.10;99.90;;;;;;4984094;28;20069;-66
2021/03/11 10:52:20;;;;;;;16.27;3.03;;;12.10;99.90;;;;;;4983837;28;20058;-66
2021/03/11 10:54:46;;;;;;;19.20;3.60;;;12.10;99.90;;;;;;4984006;28;20038;-65
2021/03/11 10:57:13;;;;;;;23.38;3.38;;;12.10;99.90;;;;;;4983509;28;20031;-65
2021/03/11 10:59:58;;;;;;;20.05;4.13;;;12.10;99.90;;;;;;4983551;28;20665;-65
2021/03/11 11:02:28;;;;;;;24.75;3.90;;;12.00;99.90;;;;;;4982569;28;20113;-65
2021/03/11 11:04:55;;;;;;;24.83;4.28;;;11.90;99.90;;;;;;4976531;28;20598;-65
2021/03/11 11:07:21;;;;;;;29.55;4.63;;;11.90;99.90;;;;;;4979737;28;20047;-66
2021/03/11 11:09:47;;;;;;;21.95;3.22;;;11.90;99.90;;;;;;4980196;28;20045;-65
2021/03/11 11:12:16;;;;;;;28.02;3.67;;;11.90;99.90;;;;;;4980182;28;20056;-66
2021/03/11 11:14:50;;;;;;;38.90;4.00;;;12.00;99.90;;;;;;4981267;28;20042;-65
2021/03/11 11:17:17;;;;;;;28.40;4.80;;;12.10;99.90;;;;;;4977725;28;20034;-66
2021/03/11 11:19:44;;;;;;;29.30;4.85;;;12.20;99.90;;;;;;4980140;28;20395;-66
2021/03/11 11:22:10;;;;;;;25.85;3.88;;;12.40;99.90;;;;;;4980137;28;20042;-66
2021/03/11 11:24:40;;;;;;;19.83;3.30;;;12.50;99.90;;;;;;4980848;28;20702;-67
2021/03/11 11:27:09;;;;;;;23.63;3.05;;;12.70;99.90;;;;;;4979497;28;20054;-67
2021/03/11 11:29:34;;;;;;;24.80;4.45;;;12.80;99.90;;;;;;4980776;28;20380;-67
2021/03/11 11:32:00;;;;;;;23.45;4.40;;;12.90;99.90;;;;;;4978381;28;20085;-67
2021/03/11 11:34:25;;;;;;;24.77;4.35;;;13.00;99.90;;;;;;4980073;28;20597;-66
2021/03/11 11:36:51;;;;;;;27.65;4.10;;;13.10;99.90;;;;;;4981652;28;20113;-67
2021/03/11 11:39:16;;;;;;;37.67;3.97;;;13.10;99.90;;;;;;4982937;28;20030;-66
2021/03/11 11:41:44;;;;;;;24.88;3.72;;;13.10;99.90;;;;;;4982623;28;20058;-67
2021/03/11 11:44:10;;;;;;;19.48;3.00;;;13.10;99.90;;;;;;4980277;28;20457;-67
2021/03/11 11:46:36;;;;;;;24.05;4.15;;;13.10;99.90;;;;;;4973276;28;20035;-67
2021/03/11 11:49:03;;;;;;;21.73;4.88;;;13.10;99.90;;;;;;4973595;28;20341;-67
2021/03/11 11:51:29;;;;;;;23.88;3.08;;;13.00;99.90;;;;;;4977962;28;20051;-67
2021/03/11 11:53:55;;;;;;;35.00;5.28;;;12.90;99.90;;;;;;4974213;28;20122;-67
2021/03/11 11:56:21;;;;;;;30.08;4.03;;;12.80;99.90;;;;;;4986555;28;20117;-67
2021/03/11 11:58:47;;;;;;;23.02;4.05;;;12.70;99.90;;;;;;4975683;28;20113;-67
2021/03/11 12:01:16;;;;;;;33.40;4.00;;;12.60;99.90;;;;;;4978590;28;20031;-67
2021/03/11 12:03:42;;;;;;;26.45;4.45;;;12.70;99.90;;;;;;4977867;28;20041;-67
2021/03/11 12:06:08;;;;;;;30.42;4.65;;;12.80;99.90;;;;;;4977032;28;20031;-67
2021/03/11 12:08:34;;;;;;;29.95;4.78;;;12.80;99.90;;;;;;4977407;28;20113;-67
2021/03/11 12:10:59;;;;;;;24.77;4.95;;;12.90;99.90;;;;;;4977140;28;20104;-67
2021/03/11 12:13:25;;;;;;;18.30;3.35;;;12.80;99.90;;;;;;4980089;28;20078;-66
2021/03/11 12:15:51;;;;;;;25.00;4.03;;;12.80;99.90;;;;;;4979994;28;20054;-67
2021/03/11 12:18:17;;;;;;;23.05;4.07;;;12.90;99.90;;;;;;4979834;28;20039;-67
2021/03/11 12:20:42;;;;;;;22.02;3.70;;;13.00;99.90;;;;;;4981786;28;20049;-68
2021/03/11 12:23:08;;;;;;;33.88;3.72;;;13.10;99.90;;;;;;4980570;28;20548;-67
2021/03/11 12:25:35;;;;;;;22.60;3.58;;;13.20;99.90;;;;;;4980634;28;20046;-67
2021/03/11 12:28:00;;;;;;;19.23;3.78;;;13.30;99.90;;;;;;4982633;28;20038;-67
2021/03/11 12:30:27;;;;;;;27.30;4.47;;;13.40;99.90;;;;;;4975464;28;20589;-67
2021/03/11 12:32:53;;;;;;;24.30;4.65;;;13.50;99.90;;;;;;4979865;28;20089;-67
2021/03/11 12:35:19;;;;;;;24.02;4.35;;;13.40;99.90;;;;;;4977160;28;20034;-67
2021/03/11 12:37:45;;;;;;;19.25;3.03;;;13.30;99.90;;;;;;4978607;28;20038;-67
2021/03/11 12:40:11;;;;;;;23.80;4.38;;;13.20;99.90;;;;;;4977650;28;20031;-67
2021/03/11 12:42:37;;;;;;;25.73;3.42;;;13.10;99.90;;;;;;4977872;28;20081;-67
2021/03/11 12:45:04;;;;;;;27.20;4.57;;;13.10;99.90;;;;;;4976620;28;20467;-67
2021/03/11 12:47:30;;;;;;;24.15;4.00;;;13.20;99.90;;;;;;4976685;28;20121;-67